Florida, Indiana
Current Conditions -  °F | °C
As of 4:53 AM on Saturday 25 Oct 2014 (Local Time) from KHUF Reporting Station
Overcast Overcast  
Wind Chill: 58°   Ceiling: 3600
Heat Index: 58°   Visibility: 10mi
Dew Point: 52°   Wind: 7mph
Humidity: 81%   Direction: 200°SSW
Pressure: 29.96"   Gusts: NA
Location:  39.6386°N, 87.3045°W
Report Text: KHUF 250853Z 20006KT 10SM BKN036 BKN043 OVC070 14/11 A2996 RMK AO2 SLP143 T01440111 58015
Loading
Personal Weather Stations






























Interactive Weather Map New forecast layout! Learn more

10-Day Weather Forecast

Advertisements
Track Severe Weather on mobile